Time;durP1;ratioP1;P1;durP2;ratioP2;P2;SDS_P1;SDS_P2;PMS_P1;PMS_P2;Temp;Humidity;BMP_temperature;BMP_pressure;BME280_temperature;BME280_humidity;BME280_pressure;Samples;Min_cycle;Max_cycle;Signal;HPM_P1;HPM_P2
2022/04/11 00:02:15;;;;;;;6.17;4.33;;;;;;;3.41;100.00;93981.91;5038623;23;20237;-65
2022/04/11 00:04:41;;;;;;;5.60;5.00;;;;;;;3.38;100.00;93991.38;5030471;28;20217;-64
2022/04/11 00:07:06;;;;;;;8.30;4.70;;;;;;;3.35;100.00;93989.84;5029130;28;20194;-61
2022/04/11 00:09:31;;;;;;;6.27;4.33;;;;;;;3.35;100.00;93997.41;5031649;28;20186;-64
2022/04/11 00:11:57;;;;;;;6.63;4.47;;;;;;;3.34;100.00;94000.03;5031372;28;20209;-64
2022/04/11 00:14:24;;;;;;;6.23;4.47;;;;;;;3.34;100.00;93997.50;5031311;28;20185;-61
2022/04/11 00:16:49;;;;;;;5.50;4.87;;;;;;;3.35;100.00;93999.13;5052085;22;20240;-63
2022/04/11 00:19:15;;;;;;;5.70;4.17;;;;;;;3.35;100.00;93999.91;5055347;28;20178;-64
2022/04/11 00:21:40;;;;;;;4.93;3.90;;;;;;;3.39;100.00;94003.81;5055329;28;20591;-63
2022/04/11 00:24:06;;;;;;;7.17;4.40;;;;;;;3.41;100.00;94008.75;5054836;28;20200;-62
2022/04/11 00:26:32;;;;;;;5.70;4.40;;;;;;;3.39;100.00;94011.34;5054473;28;20744;-64
2022/04/11 00:28:57;;;;;;;4.67;3.70;;;;;;;3.45;100.00;94016.88;5054646;28;20192;-62
2022/04/11 00:31:23;;;;;;;4.40;4.00;;;;;;;3.45;100.00;94016.88;5054282;28;20286;-65
2022/04/11 00:33:48;;;;;;;4.97;3.83;;;;;;;3.48;100.00;94021.69;5052895;28;20174;-65
2022/04/11 00:36:14;;;;;;;6.13;3.90;;;;;;;3.47;100.00;94023.41;5053710;28;20263;-64
2022/04/11 00:38:42;;;;;;;5.47;3.80;;;;;;;3.52;100.00;94033.13;5054388;28;20612;-62
2022/04/11 00:41:08;;;;;;;7.00;3.33;;;;;;;3.61;100.00;94032.53;5053823;28;20209;-65
2022/04/11 00:43:36;;;;;;;5.70;3.60;;;;;;;3.56;100.00;94039.56;5053120;28;20184;-63
2022/04/11 00:46:03;;;;;;;7.77;4.20;;;;;;;3.58;100.00;94033.53;5062153;23;20675;-63
2022/04/11 00:48:29;;;;;;;4.80;3.50;;;;;;;3.64;100.00;94044.88;5054319;28;20201;-62
2022/04/11 00:51:11;;;;;;;4.57;3.07;;;;;;;3.68;100.00;94053.81;5054425;28;20236;-61
2022/04/11 00:53:45;;;;;;;6.17;3.83;;;;;;;3.68;100.00;94054.63;5054099;28;20267;-64
2022/04/11 00:56:13;;;;;;;4.37;3.43;;;;;;;3.74;100.00;94058.41;5054127;28;20383;-61
2022/04/11 00:58:40;;;;;;;4.37;3.30;;;;;;;3.79;100.00;94058.91;5052557;28;20185;-63
2022/04/11 01:01:06;;;;;;;6.13;3.60;;;;;;;3.79;100.00;94071.47;5053587;28;20598;-63
2022/04/11 01:03:32;;;;;;;3.97;3.20;;;;;;;3.78;100.00;94064.84;5054550;28;20181;-63
2022/04/11 01:05:58;;;;;;;5.50;3.30;;;;;;;3.77;100.00;94066.56;5053714;28;20205;-64
2022/04/11 01:08:24;;;;;;;3.50;3.20;;;;;;;3.85;100.00;94078.59;5052651;28;20230;-63
2022/04/11 01:10:52;;;;;;;7.77;3.30;;;;;;;3.83;100.00;94093.00;5052794;22;20225;-63
2022/04/11 01:13:17;;;;;;;3.70;3.20;;;;;;;3.86;100.00;94080.19;5034918;28;20181;-64
2022/04/11 01:16:12;;;;;;;4.43;3.27;;;;;;;3.85;100.00;94098.72;5034330;28;20186;-64
2022/04/11 01:18:39;;;;;;;3.90;3.13;;;;;;;3.81;100.00;94104.84;5021016;28;20191;-62
2022/04/11 01:21:08;;;;;;;3.63;2.97;;;;;;;3.87;100.00;94111.97;5036489;23;20330;-61
2022/04/11 01:23:34;;;;;;;4.37;3.07;;;;;;;3.78;100.00;94105.88;5033647;28;20232;-63
2022/04/11 01:25:59;;;;;;;5.77;3.67;;;;;;;3.85;100.00;94108.78;5040138;23;20778;-60
2022/04/11 01:28:25;;;;;;;3.23;2.93;;;;;;;3.92;100.00;94120.03;5015486;28;20285;-63
2022/04/11 01:30:53;;;;;;;5.60;2.97;;;;;;;3.89;100.00;94130.28;5033586;28;20206;-61
2022/04/11 01:33:25;;;;;;;4.33;2.73;;;;;;;3.86;100.00;94123.75;5033304;28;20201;-64
2022/04/11 01:35:50;;;;;;;4.23;3.10;;;;;;;3.91;100.00;94129.28;5032643;28;20293;-62
2022/04/11 01:38:17;;;;;;;4.10;2.90;;;;;;;3.92;100.00;94122.56;5032963;28;20308;-63
2022/04/11 01:40:55;;;;;;;5.57;3.70;;;;;;;3.88;100.00;94139.53;5032223;28;20198;-63
2022/04/11 01:43:21;;;;;;;5.13;3.10;;;;;;;3.85;100.00;94139.75;5038730;23;20557;-65
2022/04/11 01:45:47;;;;;;;2.60;2.33;;;;;;;3.90;100.00;94141.97;5033281;28;20211;-64
2022/04/11 01:48:12;;;;;;;7.57;2.47;;;;;;;3.94;100.00;94154.19;5034425;28;20182;-65
2022/04/11 01:50:38;;;;;;;6.83;2.77;;;;;;;3.91;100.00;94146.88;5015382;28;20201;-65
2022/04/11 01:53:15;;;;;;;4.37;3.23;;;;;;;3.97;100.00;94151.50;5033568;28;20182;-61
2022/04/11 01:55:41;;;;;;;3.93;2.77;;;;;;;3.99;100.00;94156.41;5033334;28;20202;-64
2022/04/11 01:58:08;;;;;;;4.07;2.40;;;;;;;3.93;100.00;94160.16;5033681;28;20265;-61
2022/04/11 02:00:34;;;;;;;3.27;2.50;;;;;;;3.95;100.00;94163.38;5052729;22;20676;-64
2022/04/11 02:03:01;;;;;;;2.77;2.10;;;;;;;3.93;100.00;94184.47;5052885;28;20228;-62
2022/04/11 02:05:27;;;;;;;2.57;2.20;;;;;;;4.05;100.00;94153.47;5053011;28;20225;-64
2022/04/11 02:07:53;;;;;;;2.67;2.07;;;;;;;3.93;100.00;94185.28;5053135;28;20181;-64
2022/04/11 02:10:19;;;;;;;6.33;2.93;;;;;;;3.90;100.00;94189.72;5040799;23;20280;-61
2022/04/11 02:12:45;;;;;;;5.00;2.70;;;;;;;4.03;100.00;94180.44;5038040;23;20230;-63
2022/04/11 02:15:11;;;;;;;14.70;8.33;;;;;;;4.04;100.00;94187.09;5032633;28;20188;-62
2022/04/11 02:17:36;;;;;;;6.47;2.57;;;;;;;4.18;100.00;94169.38;5045544;23;20245;-64
2022/04/11 02:20:03;;;;;;;6.67;4.73;;;;;;;4.13;100.00;94191.50;5052913;28;20713;-65
2022/04/11 02:22:30;;;;;;;3.37;2.30;;;;;;;4.33;100.00;94193.47;5052661;28;20193;-64
2022/04/11 02:24:55;;;;;;;4.20;2.90;;;;;;;4.15;100.00;94217.34;5052810;28;20288;-63
2022/04/11 02:27:20;;;;;;;2.47;2.27;;;;;;;4.25;100.00;94218.34;5053224;28;20289;-65
2022/04/11 02:29:46;;;;;;;10.83;4.80;;;;;;;4.23;100.00;94212.59;5053120;28;20181;-65
2022/04/11 02:32:11;;;;;;;7.27;4.10;;;;;;;4.33;100.00;94220.31;5050388;23;20553;-64
2022/04/11 02:34:37;;;;;;;6.63;4.20;;;;;;;4.53;100.00;94212.22;4992216;28;20270;-60
2022/04/11 02:37:02;;;;;;;6.67;3.73;;;;;;;4.54;100.00;94212.13;5002652;23;20298;-65
2022/04/11 02:39:28;;;;;;;6.37;3.30;;;;;;;4.37;100.00;94240.16;5031755;28;20292;-60
2022/04/11 02:41:53;;;;;;;5.40;3.13;;;;;;;4.28;100.00;94243.28;5032263;28;20198;-63
2022/04/11 02:44:19;;;;;;;3.90;2.50;;;;;;;4.41;100.00;94226.44;5032409;28;20289;-63
2022/04/11 02:46:44;;;;;;;3.33;3.00;;;;;;;4.58;100.00;94225.31;5031967;28;20297;-62
2022/04/11 02:49:10;;;;;;;2.30;2.10;;;;;;;4.30;100.00;94246.50;5032182;28;20182;-65
2022/04/11 02:51:35;;;;;;;8.00;2.10;;;;;;;4.16;100.00;94244.13;5032492;28;20218;-63
2022/04/11 02:54:07;;;;;;;2.20;2.00;;;;;;;4.02;100.00;94251.78;5032535;28;20552;-63
2022/04/11 02:56:32;;;;;;;2.93;1.93;;;;;;;4.00;100.00;94235.97;5020948;23;20321;-62
2022/04/11 02:58:58;;;;;;;2.13;1.90;;;;;;;3.91;100.00;94244.09;5031679;28;20271;-61
2022/04/11 03:01:23;;;;;;;2.30;1.97;;;;;;;3.93;100.00;94244.81;5029960;28;20620;-64
2022/04/11 03:03:49;;;;;;;4.77;2.00;;;;;;;3.97;100.00;94262.13;5031727;28;20681;-66
2022/04/11 03:06:14;;;;;;;3.50;1.70;;;;;;;3.91;100.00;94254.16;5032178;28;20260;-62
2022/04/11 03:08:40;;;;;;;2.30;2.03;;;;;;;4.01;100.00;94257.69;5032078;28;20171;-63
2022/04/11 03:11:05;;;;;;;4.83;2.07;;;;;;;3.89;100.00;94263.50;5039225;23;20229;-63
2022/04/11 03:13:31;;;;;;;2.37;2.10;;;;;;;3.95;100.00;94263.13;5043850;23;20214;-65
2022/04/11 03:15:56;;;;;;;3.30;2.00;;;;;;;3.92;100.00;94251.53;5058673;23;20209;-62
2022/04/11 03:18:21;;;;;;;3.50;1.90;;;;;;;4.00;100.00;94277.00;5038696;23;20371;-63
2022/04/11 03:20:47;;;;;;;3.57;2.20;;;;;;;3.99;100.00;94277.09;5015058;28;20287;-65
2022/04/11 03:23:15;;;;;;;2.03;1.80;;;;;;;3.97;100.00;94301.53;5032598;28;20182;-64
2022/04/11 03:25:40;;;;;;;3.40;1.67;;;;;;;3.93;100.00;94285.84;5031803;28;20218;-61
2022/04/11 03:28:07;;;;;;;2.13;1.67;;;;;;;4.00;100.00;94284.53;5031930;28;20265;-64
2022/04/11 03:30:32;;;;;;;2.30;2.10;;;;;;;4.04;100.00;94278.41;5031401;28;20687;-65
2022/04/11 03:32:58;;;;;;;4.63;2.57;;;;;;;4.04;100.00;94290.19;5031729;28;20182;-63
2022/04/11 03:35:23;;;;;;;2.53;2.03;;;;;;;4.03;100.00;94291.88;5014027;28;20190;-61
2022/04/11 03:37:49;;;;;;;3.73;2.27;;;;;;;4.02;100.00;94290.25;5032049;28;20556;-63
2022/04/11 03:40:15;;;;;;;3.17;2.60;;;;;;;4.02;100.00;94295.28;5013997;28;20731;-63
2022/04/11 03:42:40;;;;;;;3.20;2.43;;;;;;;3.98;100.00;94298.13;5031898;28;20184;-64
2022/04/11 03:45:10;;;;;;;4.47;2.83;;;;;;;4.00;100.00;94297.09;5031465;28;20212;-61
2022/04/11 03:47:36;;;;;;;4.07;2.67;;;;;;;4.18;100.00;94295.13;5054300;23;20263;-63
2022/04/11 03:50:01;;;;;;;3.50;3.20;;;;;;;4.06;100.00;94308.50;5053795;28;20174;-64
2022/04/11 03:52:27;;;;;;;3.80;2.77;;;;;;;4.09;100.00;94313.31;5055879;28;20207;-62
2022/04/11 03:54:52;;;;;;;6.33;2.93;;;;;;;4.07;100.00;94313.41;5055865;28;20181;-64
2022/04/11 03:57:18;;;;;;;7.47;2.93;;;;;;;4.06;100.00;94311.00;5055800;28;20274;-64
2022/04/11 03:59:43;;;;;;;3.30;2.63;;;;;;;4.11;100.00;94319.03;5055128;28;20644;-64
2022/04/11 04:02:09;;;;;;;6.90;3.60;;;;;;;4.38;100.00;94329.81;5055344;28;20209;-66
2022/04/11 04:04:34;;;;;;;4.27;2.43;;;;;;;4.19;100.00;94326.91;5060674;23;20205;-65
2022/04/11 04:06:59;;;;;;;5.03;3.33;;;;;;;4.27;100.00;94319.66;5034885;28;20596;-65
2022/04/11 04:09:25;;;;;;;3.60;2.60;;;;;;;4.11;100.00;94327.41;5035086;28;20229;-66
2022/04/11 04:11:50;;;;;;;3.73;2.57;;;;;;;4.03;100.00;94348.91;5034987;28;20357;-65
2022/04/11 04:14:16;;;;;;;3.83;2.60;;;;;;;3.98;100.00;94345.91;5042030;23;20276;-65
2022/04/11 04:16:42;;;;;;;4.53;3.00;;;;;;;4.08;100.00;94340.16;5034939;28;20213;-65
2022/04/11 04:19:08;;;;;;;4.50;2.90;;;;;;;4.09;100.00;94359.38;5034825;28;20668;-64
2022/04/11 04:21:33;;;;;;;5.80;2.80;;;;;;;4.15;100.00;94355.66;5034826;28;20286;-63
2022/04/11 04:23:59;;;;;;;3.83;2.60;;;;;;;4.03;100.00;94379.91;5050190;28;20211;-63
2022/04/11 04:26:32;;;;;;;4.30;2.93;;;;;;;4.05;100.00;94375.56;5034956;28;20222;-64
2022/04/11 04:28:58;;;;;;;3.33;2.87;;;;;;;4.06;100.00;94391.47;5034606;28;20183;-64
2022/04/11 04:31:23;;;;;;;4.60;3.17;;;;;;;4.08;100.00;94387.16;5034847;28;20676;-64
2022/04/11 04:33:49;;;;;;;7.47;3.30;;;;;;;4.14;100.00;94386.75;5033416;28;20565;-64
2022/04/11 04:36:14;;;;;;;4.20;2.83;;;;;;;4.12;100.00;94398.63;5034727;28;20647;-65
2022/04/11 04:38:40;;;;;;;4.03;2.70;;;;;;;4.08;100.00;94394.69;5034451;28;20673;-65
2022/04/11 04:41:05;;;;;;;4.50;2.97;;;;;;;4.05;100.00;94399.91;5033480;28;20205;-63
2022/04/11 04:43:31;;;;;;;4.07;2.73;;;;;;;3.96;100.00;94418.09;5034474;28;20261;-65
2022/04/11 04:45:56;;;;;;;5.13;2.80;;;;;;;3.97;100.00;94415.50;5043433;23;20218;-61
2022/04/11 04:48:22;;;;;;;5.00;3.13;;;;;;;3.98;100.00;94428.88;5033674;28;20236;-64
2022/04/11 04:50:47;;;;;;;4.53;3.13;;;;;;;4.03;100.00;94434.41;5034163;28;20198;-64
2022/04/11 04:53:13;;;;;;;4.93;3.43;;;;;;;3.97;100.00;94439.81;5034200;28;20261;-65
2022/04/11 04:55:38;;;;;;;5.27;3.70;;;;;;;3.96;100.00;94428.16;5016087;28;20198;-61
2022/04/11 04:58:04;;;;;;;4.87;3.17;;;;;;;3.90;100.00;94441.13;5034173;28;20640;-66
2022/04/11 05:00:30;;;;;;;5.97;3.60;;;;;;;3.89;100.00;94439.50;5033624;28;20626;-63
2022/04/11 05:02:56;;;;;;;7.60;3.67;;;;;;;3.96;100.00;94450.78;5033703;28;20191;-62
2022/04/11 05:05:21;;;;;;;6.10;4.03;;;;;;;3.92;100.00;94455.19;5033815;28;20260;-64
2022/04/11 05:07:46;;;;;;;5.00;3.37;;;;;;;3.88;100.00;94453.75;5014784;28;20193;-63
2022/04/11 05:10:12;;;;;;;8.43;3.63;;;;;;;3.90;100.00;94449.44;5033886;28;20553;-64
2022/04/11 05:12:39;;;;;;;5.90;3.63;;;;;;;4.06;100.00;94450.09;5034181;28;20597;-63
2022/04/11 05:15:05;;;;;;;5.03;3.33;;;;;;;4.16;100.00;94468.75;5015849;28;20245;-64
2022/04/11 05:17:31;;;;;;;6.87;4.00;;;;;;;4.11;100.00;94477.47;5034170;28;20270;-65
2022/04/11 05:19:56;;;;;;;6.00;3.47;;;;;;;4.13;100.00;94458.88;5015972;28;20663;-62
2022/04/11 05:22:21;;;;;;;6.00;4.73;;;;;;;4.00;100.00;94460.53;5036822;23;20233;-63
2022/04/11 05:24:54;;;;;;;6.87;4.63;;;;;;;4.05;100.00;94457.75;5033448;28;20291;-63
2022/04/11 05:27:19;;;;;;;5.60;3.87;;;;;;;4.03;100.00;94477.16;5032273;28;20207;-64
2022/04/11 05:29:45;;;;;;;7.03;4.60;;;;;;;3.99;100.00;94486.59;5033133;28;20197;-63
2022/04/11 05:32:10;;;;;;;4.83;4.10;;;;;;;3.96;100.00;94465.88;5033240;28;20204;-64
2022/04/11 05:34:36;;;;;;;7.03;4.23;;;;;;;3.88;100.00;94478.13;5033769;28;20603;-64
2022/04/11 05:37:01;;;;;;;10.83;4.50;;;;;;;3.92;100.00;94470.28;5033948;28;20205;-65
2022/04/11 05:39:27;;;;;;;7.43;4.27;;;;;;;3.96;100.00;94476.72;5033411;28;20183;-62
2022/04/11 05:41:52;;;;;;;11.03;5.20;;;;;;;3.99;100.00;94470.69;5041444;23;20226;-62
2022/04/11 05:44:18;;;;;;;7.37;4.70;;;;;;;4.03;100.00;94472.13;5033155;28;20206;-63
2022/04/11 05:46:43;;;;;;;6.90;4.00;;;;;;;4.01;100.00;94484.81;5033434;28;20206;-64
2022/04/11 05:49:08;;;;;;;7.47;4.03;;;;;;;4.05;100.00;94491.25;5033607;28;20175;-65
2022/04/11 05:51:34;;;;;;;9.43;4.57;;;;;;;4.01;100.00;94497.38;5033344;28;20210;-64
2022/04/11 05:54:00;;;;;;;7.47;3.97;;;;;;;4.06;100.00;94512.19;5032965;28;20648;-64
2022/04/11 05:56:25;;;;;;;7.97;4.30;;;;;;;4.08;100.00;94496.06;5033113;28;20214;-62
2022/04/11 05:58:50;;;;;;;7.63;4.00;;;;;;;4.02;100.00;94510.75;5015446;28;20183;-64
2022/04/11 06:01:16;;;;;;;8.17;5.30;;;;;;;4.01;100.00;94514.16;5033258;28;20237;-64
2022/04/11 06:03:41;;;;;;;9.47;4.37;;;;;;;3.98;100.00;94512.63;5033027;28;20543;-61
2022/04/11 06:06:07;;;;;;;8.67;4.63;;;;;;;3.88;100.00;94546.00;5032927;28;20202;-63
2022/04/11 06:08:32;;;;;;;6.90;5.23;;;;;;;3.93;100.00;94533.94;5032764;28;20265;-62
2022/04/11 06:10:58;;;;;;;7.90;4.57;;;;;;;3.84;100.00;94532.78;5032611;28;20209;-63
2022/04/11 06:13:23;;;;;;;5.63;4.33;;;;;;;3.91;100.00;94521.47;5032517;28;20190;-62
2022/04/11 06:15:49;;;;;;;6.60;4.17;;;;;;;3.89;100.00;94515.72;5032544;28;20194;-61
2022/04/11 06:18:14;;;;;;;7.73;3.80;;;;;;;3.84;100.00;94557.09;5032533;28;20170;-64
2022/04/11 06:20:44;;;;;;;6.53;4.53;;;;;;;3.84;100.00;94504.31;5032548;28;20201;-65
2022/04/11 06:23:09;;;;;;;8.10;4.70;;;;;;;3.99;100.00;94518.47;5032280;28;20166;-67
2022/04/11 06:25:35;;;;;;;5.53;3.43;;;;;;;3.93;100.00;94523.88;5039325;23;20237;-63
2022/04/11 06:28:00;;;;;;;7.60;4.43;;;;;;;4.07;100.00;94514.59;5032380;28;20674;-63
2022/04/11 06:30:25;;;;;;;7.00;4.63;;;;;;;4.02;100.00;94540.94;5032224;28;20197;-64
2022/04/11 06:32:51;;;;;;;6.40;4.33;;;;;;;4.04;100.00;94547.47;5032391;28;20182;-63
2022/04/11 06:35:17;;;;;;;5.50;4.43;;;;;;;4.18;100.00;94526.53;5032206;28;20178;-64
2022/04/11 06:37:42;;;;;;;11.10;5.23;;;;;;;4.32;100.00;94539.03;5032542;28;20206;-63
2022/04/11 06:40:08;;;;;;;7.70;4.63;;;;;;;4.37;100.00;94541.25;5032458;28;20170;-64
2022/04/11 06:42:34;;;;;;;8.57;4.50;;;;;;;4.37;100.00;94548.78;5031808;28;20580;-62
2022/04/11 06:44:59;;;;;;;8.20;4.60;;;;;;;4.38;100.00;94537.84;5031809;28;20676;-64
2022/04/11 06:47:25;;;;;;;7.50;5.00;;;;;;;4.48;100.00;94547.25;5032215;28;20210;-63
2022/04/11 06:49:50;;;;;;;5.67;4.67;;;;;;;4.48;100.00;94554.78;5032274;28;20183;-65
2022/04/11 06:52:16;;;;;;;6.87;4.60;;;;;;;4.63;100.00;94563.88;5032426;28;20290;-64
2022/04/11 06:54:41;;;;;;;5.50;4.40;;;;;;;4.65;100.00;94581.41;5014156;28;20183;-63
2022/04/11 06:57:07;;;;;;;7.83;4.47;;;;;;;4.74;100.00;94560.69;5032143;28;20309;-63
2022/04/11 06:59:32;;;;;;;10.93;5.27;;;;;;;4.99;100.00;94590.94;5031828;28;20170;-63
2022/04/11 07:01:58;;;;;;;7.23;4.97;;;;;;;5.19;100.00;94603.09;5032229;28;20201;-63
2022/04/11 07:04:23;;;;;;;9.50;5.10;;;;;;;5.34;100.00;94618.91;5031720;28;20305;-62
2022/04/11 07:06:49;;;;;;;5.03;3.37;;;;;;;5.34;100.00;94664.28;5032348;28;20201;-62
2022/04/11 07:09:14;;;;;;;4.77;3.60;;;;;;;5.21;100.00;94650.84;5030669;28;20187;-63
2022/04/11 07:11:41;;;;;;;8.67;4.03;;;;;;;5.35;100.00;94623.88;5031662;28;20198;-63
2022/04/11 07:14:07;;;;;;;6.00;4.67;;;;;;;5.34;100.00;94636.56;5031856;28;20294;-64
2022/04/11 07:16:32;;;;;;;5.73;3.60;;;;;;;5.39;100.00;94634.56;5014285;28;20699;-62
2022/04/11 07:18:58;;;;;;;5.07;3.80;;;;;;;5.43;100.00;94633.44;5031760;28;20189;-63
2022/04/11 07:21:24;;;;;;;4.20;3.63;;;;;;;5.35;99.47;94664.19;5032013;28;20299;-62
2022/04/11 07:23:49;;;;;;;5.90;3.50;;;;;;;5.36;99.92;94657.41;5031870;28;20196;-61
2022/04/11 07:26:15;;;;;;;5.47;4.13;;;;;;;5.33;98.38;94660.16;5035918;28;20210;-63
2022/04/11 07:28:40;;;;;;;4.97;3.43;;;;;;;5.43;97.85;94676.28;5034467;28;20191;-64
2022/04/11 07:31:06;;;;;;;8.07;4.50;;;;;;;5.56;98.17;94660.28;5035999;28;20201;-63
2022/04/11 07:33:31;;;;;;;5.93;3.77;;;;;;;5.58;98.39;94657.66;5035630;28;20563;-61
2022/04/11 07:35:57;;;;;;;5.87;3.33;;;;;;;5.92;96.41;94685.63;5035752;28;20217;-59
2022/04/11 07:38:23;;;;;;;4.53;3.73;;;;;;;5.92;94.85;94707.50;5035677;28;20188;-63
2022/04/11 07:40:49;;;;;;;7.30;4.40;;;;;;;5.95;95.06;94694.72;5017775;28;20199;-63
2022/04/11 07:43:15;;;;;;;6.93;4.30;;;;;;;5.92;94.85;94718.41;5035536;28;20658;-62
2022/04/11 07:45:42;;;;;;;5.37;2.93;;;;;;;5.78;93.98;94697.50;5017635;28;20297;-63
2022/04/11 07:48:07;;;;;;;5.63;3.37;;;;;;;5.89;94.73;94697.63;5017795;28;20185;-62
2022/04/11 07:50:33;;;;;;;7.80;4.13;;;;;;;6.08;94.44;94689.66;5035465;28;20200;-62
2022/04/11 07:52:58;;;;;;;6.10;3.40;;;;;;;6.22;94.65;94679.47;5035199;28;20185;-60
2022/04/11 07:55:24;;;;;;;7.27;4.97;;;;;;;6.49;94.79;94702.81;5035441;28;20200;-63
2022/04/11 07:57:50;;;;;;;5.20;3.50;;;;;;;6.43;93.63;94714.16;5035329;28;20650;-63
2022/04/11 08:00:16;;;;;;;9.40;3.83;;;;;;;6.57;93.16;94729.16;5035520;28;20671;-63
2022/04/11 08:02:41;;;;;;;4.80;3.90;;;;;;;6.52;92.21;94746.38;5035248;28;20231;-62
2022/04/11 08:05:07;;;;;;;6.47;3.77;;;;;;;6.68;90.65;94776.44;5035315;28;20232;-63
2022/04/11 08:07:33;;;;;;;10.63;3.10;;;;;;;6.89;87.14;94830.53;5016317;28;20193;-65
2022/04/11 08:10:03;;;;;;;4.43;3.53;;;;;;;7.39;91.26;94744.44;5017567;28;20217;-64
2022/04/11 08:12:28;;;;;;;7.53;3.33;;;;;;;7.00;90.68;94756.53;5035850;28;20181;-64
2022/04/11 08:14:53;;;;;;;4.87;3.10;;;;;;;7.29;91.39;94732.56;5017209;28;20177;-61
2022/04/11 08:17:19;;;;;;;7.23;3.40;;;;;;;7.27;87.98;94800.13;5034993;28;20208;-62
2022/04/11 08:19:44;;;;;;;6.47;3.90;;;;;;;7.31;90.34;94777.03;5035002;28;20659;-63
2022/04/11 08:22:10;;;;;;;5.17;3.87;;;;;;;6.82;88.38;94778.84;5034775;28;20225;-62
2022/04/11 08:24:35;;;;;;;5.63;3.73;;;;;;;7.17;88.18;94789.84;5034767;28;20202;-62
2022/04/11 08:27:01;;;;;;;8.80;3.23;;;;;;;7.11;88.74;94792.78;5035249;28;20213;-62
2022/04/11 08:29:26;;;;;;;7.87;3.87;;;;;;;6.74;88.94;94764.19;5034511;28;20652;-62
2022/04/11 08:31:52;;;;;;;7.40;3.90;;;;;;;6.95;88.83;94773.75;5035162;28;20696;-61
2022/04/11 08:34:17;;;;;;;6.40;3.13;;;;;;;6.88;87.38;94807.91;5034517;28;20181;-63
2022/04/11 08:36:44;;;;;;;4.27;3.10;;;;;;;6.90;85.97;94819.53;5033534;28;20569;-63
2022/04/11 08:39:10;;;;;;;5.20;3.60;;;;;;;7.14;87.38;94805.22;5035261;28;20614;-63
2022/04/11 08:41:36;;;;;;;4.60;3.27;;;;;;;7.50;85.97;94824.63;5033041;28;20300;-63
2022/04/11 08:44:06;;;;;;;4.03;3.57;;;;;;;8.30;88.10;94779.13;5034047;28;20273;-62
2022/04/11 08:46:35;;;;;;;4.93;2.80;;;;;;;8.81;77.75;94911.28;5033936;28;20206;-63
2022/04/11 08:49:03;;;;;;;4.07;2.70;;;;;;;9.59;76.23;94914.66;5034158;28;20174;-63
2022/04/11 08:51:34;;;;;;;5.03;2.87;;;;;;;9.31;72.35;94921.00;5043747;23;20202;-61
2022/04/11 08:54:04;;;;;;;5.10;3.33;;;;;;;8.76;73.52;94884.69;5054208;28;20174;-63
2022/04/11 08:56:29;;;;;;;7.77;3.67;;;;;;;7.99;75.83;94814.34;5054545;28;20225;-63
2022/04/11 08:58:55;;;;;;;5.90;4.20;;;;;;;8.03;75.79;94811.50;5054201;28;20268;-62
2022/04/11 09:01:21;;;;;;;5.43;2.93;;;;;;;8.23;71.60;94858.97;5054006;28;20295;-61
2022/04/11 09:03:53;;;;;;;4.93;3.17;;;;;;;8.19;71.29;94865.19;5054013;28;20177;-64
2022/04/11 09:06:22;;;;;;;2.80;2.57;;;;;;;8.14;68.52;94934.81;5054566;28;20200;-63
2022/04/11 09:08:55;;;;;;;4.23;2.87;;;;;;;8.30;71.31;94869.50;5053913;28;20264;-61
2022/04/11 09:11:28;;;;;;;5.03;3.43;;;;;;;7.61;70.63;94862.63;5052253;23;20222;-61
2022/04/11 09:13:53;;;;;;;7.60;4.33;;;;;;;7.32;74.27;94788.78;5033959;28;20171;-61
2022/04/11 09:16:19;;;;;;;5.77;4.23;;;;;;;7.23;76.12;94760.81;5034090;28;20210;-64
2022/04/11 09:18:50;;;;;;;6.03;4.23;;;;;;;7.32;77.43;94752.56;5034472;28;20186;-65
2022/04/11 09:21:17;;;;;;;6.80;3.77;;;;;;;7.15;76.93;94765.59;5034347;28;20206;-63
2022/04/11 09:23:43;;;;;;;5.03;3.63;;;;;;;7.09;77.91;94738.22;5015696;28;20197;-64
2022/04/11 09:28:43;;;;;;;6.07;3.53;;;;;;;7.11;75.83;94789.47;5040781;22;20232;-64
2022/04/11 09:31:08;;;;;;;4.23;3.27;;;;;;;7.15;76.22;94783.28;5033849;28;20299;-64
2022/04/11 09:33:39;;;;;;;5.37;3.20;;;;;;;7.42;75.83;94792.28;5033482;28;20178;-62
2022/04/11 09:36:05;;;;;;;3.10;2.80;;;;;;;7.63;72.75;94825.38;5055979;23;20233;-62
2022/04/11 09:38:38;;;;;;;4.77;2.93;;;;;;;7.62;71.51;94849.88;5053187;28;20189;-61
2022/04/11 09:41:04;;;;;;;7.10;3.93;;;;;;;7.75;72.94;94823.72;5053180;28;20216;-62
2022/04/11 09:43:31;;;;;;;6.60;4.47;;;;;;;7.48;74.22;94794.38;5051076;22;20711;-63
2022/04/11 09:46:02;;;;;;;10.47;4.70;;;;;;;7.46;73.89;94815.63;5033589;28;20214;-61
2022/04/11 09:48:30;;;;;;;8.33;4.40;;;;;;;7.66;73.75;94802.38;5033086;28;20191;-61
2022/04/11 09:51:00;;;;;;;4.10;3.70;;;;;;;7.51;72.29;94827.03;5033251;28;20201;-62
2022/04/11 09:53:35;;;;;;;3.50;2.87;;;;;;;7.46;71.20;94840.91;5034234;28;20190;-63
2022/04/11 09:56:04;;;;;;;3.67;3.27;;;;;;;7.10;70.24;94851.03;5040353;23;20235;-64
2022/04/11 09:58:32;;;;;;;5.00;3.00;;;;;;;7.15;70.24;94866.72;5032956;28;20199;-61
2022/04/11 10:01:01;;;;;;;6.43;2.80;;;;;;;7.23;71.37;94839.19;5033294;28;20686;-64
2022/04/11 10:03:28;;;;;;;6.43;3.37;;;;;;;7.50;69.48;94868.44;5032787;28;20177;-62
2022/04/11 10:05:54;;;;;;;6.03;3.13;;;;;;;7.73;69.71;94863.50;5056706;23;20229;-61
2022/04/11 10:08:24;;;;;;;6.97;3.00;;;;;;;8.44;66.79;94905.56;5052525;28;20178;-65
2022/04/11 10:10:51;;;;;;;3.27;2.53;;;;;;;8.65;63.74;94946.28;5053153;28;20205;-64
2022/04/11 10:13:16;;;;;;;5.33;3.70;;;;;;;8.56;66.34;94890.41;5052671;28;20185;-64
2022/04/11 10:15:45;;;;;;;4.93;3.53;;;;;;;8.78;66.26;94875.22;5052339;28;20209;-62
2022/04/11 10:18:14;;;;;;;4.97;3.30;;;;;;;8.78;63.42;94941.13;5052732;28;20231;-64
2022/04/11 10:20:43;;;;;;;3.67;2.90;;;;;;;9.46;60.46;94985.00;5068018;28;20209;-65
2022/04/11 10:23:40;;;;;;;3.37;2.90;;;;;;;9.12;60.65;94958.00;5041819;23;20240;-63
2022/04/11 10:26:19;;;;;;;8.57;2.97;;;;;;;8.84;62.06;94933.91;5032576;28;20249;-62
2022/04/11 10:28:46;;;;;;;5.83;3.20;;;;;;;8.33;63.92;94877.69;5014705;28;20186;-63
2022/04/11 10:31:13;;;;;;;6.07;2.83;;;;;;;9.32;60.97;94972.56;5032616;28;20668;-63
2022/04/11 10:33:43;;;;;;;3.60;2.70;;;;;;;9.85;58.70;95009.13;5032426;28;20582;-62
2022/04/11 10:36:28;;;;;;;5.87;2.70;;;;;;;10.58;56.24;95024.59;5032481;28;20220;-63
2022/04/11 10:39:12;;;;;;;6.33;2.60;;;;;;;10.47;55.02;95030.53;5032174;28;20186;-65
2022/04/11 10:41:56;;;;;;;2.83;2.40;;;;;;;11.69;55.67;95012.91;5032438;28;20209;-61
2022/04/11 10:44:35;;;;;;;2.73;2.50;;;;;;;11.76;52.54;95044.56;5032077;28;20202;-64
2022/04/11 10:47:12;;;;;;;3.37;2.70;;;;;;;11.25;50.38;95076.78;5014594;28;20202;-64
2022/04/11 10:49:50;;;;;;;2.73;2.53;;;;;;;10.42;52.92;94988.59;5032063;28;20219;-64
2022/04/11 10:52:35;;;;;;;4.90;2.77;;;;;;;9.45;54.63;94932.66;5032510;28;20233;-65
2022/04/11 10:55:19;;;;;;;3.50;2.47;;;;;;;8.85;56.95;94871.31;5014344;28;20213;-64
2022/04/11 10:57:50;;;;;;;3.80;2.57;;;;;;;8.47;58.27;94841.22;5032536;28;20186;-64
2022/04/11 11:00:17;;;;;;;5.27;2.80;;;;;;;8.48;59.90;94819.22;5031196;28;20277;-64
2022/04/11 11:02:59;;;;;;;5.80;3.63;;;;;;;8.34;59.10;94822.78;5032771;28;20554;-63
2022/04/11 11:05:26;;;;;;;6.13;3.03;;;;;;;8.79;58.13;94874.31;5032009;28;20210;-63
2022/04/11 11:08:09;;;;;;;3.63;2.73;;;;;;;8.82;55.97;94902.78;5031573;28;20198;-65
2022/04/11 11:10:45;;;;;;;4.10;3.00;;;;;;;8.97;57.65;94867.84;5014548;28;20202;-62
2022/04/11 11:13:38;;;;;;;4.07;2.60;;;;;;;9.39;59.21;94836.72;5031969;28;20185;-61
2022/04/11 11:16:03;;;;;;;6.23;2.63;;;;;;;9.18;56.78;94884.00;5031792;28;20214;-63
2022/04/11 11:18:51;;;;;;;6.87;2.87;;;;;;;9.59;54.92;94951.91;5032403;28;20566;-64
2022/04/11 11:21:33;;;;;;;2.43;2.20;;;;;;;10.01;52.02;95017.19;5031802;28;20210;-63
2022/04/11 11:24:04;;;;;;;3.80;2.60;;;;;;;9.25;53.92;94956.19;5016030;28;20189;-63
2022/04/11 11:26:57;;;;;;;3.97;2.73;;;;;;;8.93;54.45;94932.38;5038633;23;20244;-61
2022/04/11 11:29:33;;;;;;;6.23;3.10;;;;;;;9.33;54.35;94933.59;5031499;28;20166;-65
2022/04/11 11:32:04;;;;;;;3.30;2.80;;;;;;;8.77;55.27;94896.41;5032341;28;20206;-61
2022/04/11 11:34:32;;;;;;;5.93;3.03;;;;;;;8.78;56.66;94870.16;5031436;28;20256;-63
2022/04/11 11:37:07;;;;;;;3.67;3.00;;;;;;;8.79;54.98;94897.09;5032067;28;20221;-63
2022/04/11 11:39:38;;;;;;;2.80;2.47;;;;;;;8.57;55.08;94914.81;5031543;28;20263;-61
2022/04/11 11:42:17;;;;;;;3.43;2.70;;;;;;;8.42;55.96;94888.88;5031667;28;20203;-60